createdAt,value
2022-12-20T00:01:19.337Z,5.88
2022-12-20T00:04:02.271Z,5.91
2022-12-20T00:06:43.294Z,5.91
2022-12-20T00:09:25.372Z,5.93
2022-12-20T00:12:06.170Z,5.95
2022-12-20T00:14:49.311Z,5.99
2022-12-20T00:17:30.389Z,5.96
2022-12-20T00:20:12.428Z,5.98
2022-12-20T00:22:53.358Z,6.00
2022-12-20T00:25:34.579Z,6.03
2022-12-20T00:28:14.378Z,6.03
2022-12-20T00:30:55.649Z,6.00
2022-12-20T00:33:35.862Z,5.98
2022-12-20T00:36:17.512Z,5.96
2022-12-20T00:39:00.227Z,6.00
2022-12-20T00:41:41.409Z,6.03
2022-12-20T00:44:21.214Z,6.04
2022-12-20T00:47:01.072Z,6.05
2022-12-20T00:49:43.095Z,6.03
2022-12-20T00:52:23.840Z,6.03
2022-12-20T00:55:17.118Z,6.06
2022-12-20T00:57:58.467Z,6.02
2022-12-20T01:00:38.357Z,6.07
2022-12-20T01:03:19.766Z,6.10
2022-12-20T01:06:01.865Z,6.10
2022-12-20T01:08:42.457Z,6.05
2022-12-20T01:11:24.880Z,6.05
2022-12-20T01:14:05.849Z,6.11
2022-12-20T01:16:47.047Z,6.10
2022-12-20T01:19:28.126Z,6.18
2022-12-20T01:22:07.986Z,6.19
2022-12-20T01:24:49.305Z,6.24
2022-12-20T01:27:27.232Z,6.24
2022-12-20T01:30:07.987Z,6.26
2022-12-20T01:32:48.706Z,6.30
2022-12-20T01:35:30.532Z,6.36
2022-12-20T01:38:11.536Z,6.36
2022-12-20T01:40:49.419Z,6.37
2022-12-20T01:46:25.202Z,6.42
2022-12-20T01:49:10.665Z,6.37
2022-12-20T01:51:54.250Z,6.35
2022-12-20T01:54:35.260Z,6.36
2022-12-20T01:57:17.482Z,6.37
2022-12-20T01:59:55.624Z,6.36
2022-12-20T02:02:34.309Z,6.39
2022-12-20T02:05:18.191Z,6.38
2022-12-20T02:07:58.528Z,6.46
2022-12-20T02:10:39.059Z,6.47
2022-12-20T02:13:21.031Z,6.50
2022-12-20T02:16:03.182Z,6.59
2022-12-20T02:18:47.185Z,6.68
2022-12-20T02:21:29.686Z,6.70
2022-12-20T02:24:18.576Z,6.73
2022-12-20T02:27:03.093Z,6.75
2022-12-20T02:29:55.707Z,6.74
2022-12-20T02:32:40.329Z,6.78
2022-12-20T02:35:23.819Z,6.79
2022-12-20T02:38:03.145Z,6.79
2022-12-20T02:40:44.244Z,6.84
2022-12-20T02:43:43.290Z,6.81
2022-12-20T02:46:26.785Z,6.79
2022-12-20T02:49:08.664Z,6.83
2022-12-20T02:51:49.343Z,6.83
2022-12-20T02:54:30.507Z,6.89
2022-12-20T02:57:12.147Z,6.89
2022-12-20T02:59:55.682Z,6.85
2022-12-20T03:02:50.495Z,6.92
2022-12-20T03:05:32.890Z,6.94
2022-12-20T03:08:13.738Z,6.97
2022-12-20T03:10:55.386Z,6.97
2022-12-20T03:13:38.326Z,7.00
2022-12-20T03:16:24.592Z,7.08
2022-12-20T03:19:05.554Z,7.17
2022-12-20T03:21:45.350Z,7.25
2022-12-20T03:24:26.910Z,7.19
2022-12-20T03:27:09.012Z,7.26
2022-12-20T03:29:49.574Z,7.23
2022-12-20T03:32:30.972Z,7.27
2022-12-20T03:35:12.877Z,7.38
2022-12-20T03:37:55.610Z,7.35
2022-12-20T03:40:34.945Z,7.38
2022-12-20T03:43:16.602Z,7.36
2022-12-20T03:45:56.461Z,7.27
2022-12-20T03:48:37.811Z,7.31
2022-12-20T03:51:19.338Z,7.28
2022-12-20T03:54:00.681Z,7.27
2022-12-20T03:56:58.021Z,7.24
2022-12-20T03:59:37.841Z,7.24
2022-12-20T04:02:19.483Z,7.20
2022-12-20T04:04:58.793Z,7.28
2022-12-20T04:07:38.609Z,7.26
2022-12-20T04:10:20.688Z,7.25
2022-12-20T04:13:01.672Z,7.24
2022-12-20T04:15:41.545Z,7.33
2022-12-20T04:18:22.873Z,7.35
2022-12-20T04:21:04.785Z,7.40
2022-12-20T04:23:47.726Z,7.46
2022-12-20T04:26:30.758Z,7.45
2022-12-20T04:29:13.318Z,7.48
2022-12-20T04:31:54.907Z,7.50
2022-12-20T04:34:36.136Z,7.47
2022-12-20T04:37:17.651Z,7.49
2022-12-20T04:40:02.208Z,7.46
2022-12-20T04:42:56.373Z,7.49
2022-12-20T04:45:35.927Z,7.50
2022-12-20T04:48:54.665Z,7.51
2022-12-20T04:51:18.230Z,7.49
2022-12-20T04:53:58.135Z,7.47
2022-12-20T04:56:47.421Z,7.45
2022-12-20T04:59:33.685Z,7.44
2022-12-20T05:02:17.144Z,7.41
2022-12-20T05:05:03.099Z,7.37
2022-12-20T05:07:49.074Z,7.28
2022-12-20T05:10:28.855Z,7.26
2022-12-20T05:13:12.009Z,7.20
2022-12-20T05:15:58.772Z,7.17
2022-12-20T05:18:48.606Z,7.14
2022-12-20T05:21:51.286Z,7.12
2022-12-20T05:24:50.381Z,7.10
2022-12-20T05:27:39.727Z,7.11
2022-12-20T05:30:21.341Z,7.08
2022-12-20T05:33:04.781Z,7.11
2022-12-20T05:35:47.510Z,7.12
2022-12-20T05:38:30.126Z,7.07
2022-12-20T05:41:11.629Z,7.10
2022-12-20T05:43:52.917Z,7.09
2022-12-20T05:46:33.248Z,7.07
2022-12-20T05:49:17.836Z,7.09
2022-12-20T05:51:58.819Z,7.08
2022-12-20T05:54:40.186Z,7.08
2022-12-20T05:57:26.397Z,7.12
2022-12-20T06:00:07.067Z,7.13
2022-12-20T06:02:57.326Z,7.16
2022-12-20T06:05:38.777Z,7.19
2022-12-20T06:08:21.275Z,7.18
2022-12-20T06:11:04.925Z,7.18
2022-12-20T06:13:49.247Z,7.18
2022-12-20T06:16:30.664Z,7.20
2022-12-20T06:19:17.536Z,7.14
2022-12-20T06:22:03.496Z,7.16
2022-12-20T06:24:56.057Z,7.18
2022-12-20T06:27:40.233Z,7.21
2022-12-20T06:30:33.789Z,7.21
2022-12-20T06:33:25.523Z,7.17
2022-12-20T06:36:07.667Z,7.15
2022-12-20T06:38:48.322Z,7.11
2022-12-20T06:41:29.673Z,7.12
2022-12-20T06:44:11.262Z,7.05
2022-12-20T06:46:52.502Z,7.02
2022-12-20T06:49:33.923Z,7.00
2022-12-20T06:52:20.521Z,7.01
2022-12-20T06:55:02.906Z,6.98
2022-12-20T06:57:46.169Z,7.02
2022-12-20T07:00:27.635Z,7.01
2022-12-20T07:03:11.133Z,7.09
2022-12-20T07:05:54.280Z,7.11
2022-12-20T07:08:36.940Z,7.09
2022-12-20T07:11:18.382Z,7.11
2022-12-20T07:14:01.392Z,7.08
2022-12-20T07:16:43.694Z,7.18
2022-12-20T07:19:23.800Z,7.21
2022-12-20T07:22:06.886Z,7.21
2022-12-20T07:24:48.608Z,7.25
2022-12-20T07:27:29.628Z,7.32
2022-12-20T07:30:11.804Z,7.28
2022-12-20T07:32:52.409Z,7.31
2022-12-20T07:35:32.473Z,7.27
2022-12-20T07:38:13.721Z,7.41
2022-12-20T07:40:55.061Z,7.45
2022-12-20T07:43:35.220Z,7.47
2022-12-20T07:46:16.574Z,7.50
2022-12-20T07:48:57.765Z,7.48
2022-12-20T07:51:43.508Z,7.54
2022-12-20T07:54:26.712Z,7.53
2022-12-20T07:57:05.431Z,7.53
2022-12-20T07:59:45.585Z,7.54
2022-12-20T08:02:26.851Z,7.58
2022-12-20T08:05:08.519Z,7.69
2022-12-20T08:07:53.596Z,7.65
2022-12-20T08:10:39.029Z,7.65
2022-12-20T08:13:19.950Z,7.67
2022-12-20T08:16:00.106Z,7.69
2022-12-20T08:18:39.244Z,7.72
2022-12-20T08:21:19.452Z,7.74
2022-12-20T08:24:00.838Z,7.73
2022-12-20T08:26:41.677Z,7.77
2022-12-20T08:29:22.044Z,7.82
2022-12-20T08:32:01.516Z,7.84
2022-12-20T08:34:41.596Z,7.82
2022-12-20T08:37:19.688Z,7.83
2022-12-20T08:40:01.663Z,7.89
2022-12-20T08:42:44.614Z,7.95
2022-12-20T08:45:25.613Z,7.96
2022-12-20T08:48:05.589Z,8.02
2022-12-20T08:50:46.888Z,8.04
2022-12-20T08:53:26.676Z,8.04
2022-12-20T08:56:07.552Z,8.06
2022-12-20T08:58:46.176Z,8.07
2022-12-20T09:01:30.303Z,8.05
2022-12-20T09:04:11.133Z,8.04
2022-12-20T09:06:52.131Z,8.10
2022-12-20T09:09:35.534Z,8.05
2022-12-20T09:12:16.481Z,8.07
2022-12-20T09:14:56.396Z,8.11
2022-12-20T09:17:37.819Z,8.14
2022-12-20T09:20:19.147Z,8.18
2022-12-20T09:22:59.390Z,8.18
2022-12-20T09:25:40.311Z,8.21
2022-12-20T09:28:20.138Z,8.28
2022-12-20T09:31:00.554Z,8.32
2022-12-20T09:33:39.582Z,8.33
2022-12-20T09:36:20.344Z,8.39
2022-12-20T09:39:03.073Z,8.46
2022-12-20T09:41:43.255Z,8.47
2022-12-20T09:44:26.515Z,8.56
2022-12-20T09:47:10.564Z,8.61
2022-12-20T09:49:51.864Z,8.65
2022-12-20T09:52:36.390Z,8.71
2022-12-20T09:55:20.741Z,8.76
2022-12-20T09:58:06.622Z,8.81
2022-12-20T10:00:53.579Z,8.81
2022-12-20T10:03:34.696Z,8.86
2022-12-20T10:06:17.517Z,8.93
2022-12-20T10:08:59.950Z,8.98
2022-12-20T10:11:50.119Z,8.98
2022-12-20T10:14:42.608Z,9.00
2022-12-20T10:17:32.426Z,9.08
2022-12-20T10:20:20.992Z,9.16
2022-12-20T10:23:01.740Z,9.22
2022-12-20T10:25:40.756Z,9.25
2022-12-20T10:28:20.851Z,9.29
2022-12-20T10:31:03.037Z,9.27
2022-12-20T10:33:43.528Z,9.29
2022-12-20T10:36:27.479Z,9.33
2022-12-20T10:39:08.594Z,9.36
2022-12-20T10:41:51.695Z,9.38
2022-12-20T10:44:32.783Z,9.39
2022-12-20T10:47:23.252Z,9.42
2022-12-20T10:50:10.264Z,9.41
2022-12-20T10:53:03.680Z,9.43
2022-12-20T10:55:45.556Z,9.43
2022-12-20T10:58:32.068Z,9.41
2022-12-20T11:01:15.188Z,9.43
2022-12-20T11:03:55.413Z,9.43
2022-12-20T11:06:44.169Z,9.52
2022-12-20T11:09:26.371Z,9.58
2022-12-20T11:12:07.751Z,9.62
2022-12-20T11:14:46.359Z,9.63
2022-12-20T11:17:29.310Z,9.67
2022-12-20T11:20:28.280Z,9.72
2022-12-20T11:23:14.612Z,9.74
2022-12-20T11:25:59.680Z,9.79
2022-12-20T11:28:47.757Z,9.85
2022-12-20T11:31:29.427Z,9.91
2022-12-20T11:34:13.990Z,9.91
2022-12-20T11:36:57.312Z,9.91
2022-12-20T11:39:39.951Z,9.93
2022-12-20T11:42:22.511Z,9.94
2022-12-20T11:45:11.707Z,9.98
2022-12-20T11:47:58.061Z,10.02
2022-12-20T11:51:00.543Z,10.02
2022-12-20T11:53:42.192Z,10.07
2022-12-20T11:56:23.122Z,10.10
2022-12-20T11:59:04.988Z,10.14
2022-12-20T12:01:45.095Z,10.12
2022-12-20T12:04:28.018Z,10.12
2022-12-20T12:07:07.799Z,10.12
2022-12-20T12:09:49.407Z,10.11
2022-12-20T12:12:30.181Z,10.12
2022-12-20T12:15:16.510Z,10.11
2022-12-20T12:17:58.896Z,10.15
2022-12-20T12:20:45.623Z,10.14
2022-12-20T12:23:27.613Z,10.17
2022-12-20T12:26:06.756Z,10.15
2022-12-20T12:28:47.457Z,10.14
2022-12-20T12:31:31.546Z,10.13
2022-12-20T12:34:14.710Z,10.15
2022-12-20T12:37:16.476Z,10.16
2022-12-20T12:40:04.632Z,10.11
2022-12-20T12:42:56.709Z,10.12
2022-12-20T12:45:38.254Z,10.12
2022-12-20T12:48:19.565Z,10.09
2022-12-20T12:51:02.431Z,10.05
2022-12-20T12:53:44.551Z,10.07
2022-12-20T12:56:47.241Z,10.03
2022-12-20T12:59:51.797Z,10.05
2022-12-20T13:02:36.296Z,10.09
2022-12-20T13:05:34.502Z,10.11
2022-12-20T13:08:18.270Z,10.12
2022-12-20T13:10:59.200Z,10.10
2022-12-20T13:13:42.691Z,10.06
2022-12-20T13:17:09.534Z,10.04
2022-12-20T13:19:33.919Z,10.02
2022-12-20T13:22:19.596Z,10.02
2022-12-20T13:24:59.993Z,9.97
2022-12-20T13:27:41.274Z,9.93
2022-12-20T13:30:30.425Z,9.95
2022-12-20T13:33:25.627Z,9.90
2022-12-20T13:36:19.584Z,9.89
2022-12-20T13:39:01.442Z,9.89
2022-12-20T13:41:42.783Z,9.87
2022-12-20T13:44:30.277Z,9.85
2022-12-20T13:47:21.694Z,9.80
2022-12-20T13:50:02.744Z,9.81
2022-12-20T13:52:45.285Z,9.81
2022-12-20T13:55:33.070Z,9.75
2022-12-20T13:58:15.268Z,9.72
2022-12-20T14:00:55.664Z,9.71
2022-12-20T14:03:41.202Z,9.69
2022-12-20T14:06:26.517Z,9.63
2022-12-20T14:09:05.779Z,9.62
2022-12-20T14:11:48.593Z,9.57
2022-12-20T14:14:28.819Z,9.54
2022-12-20T14:17:18.572Z,9.50
2022-12-20T14:20:06.541Z,9.49
2022-12-20T14:22:50.841Z,9.45
2022-12-20T14:25:30.490Z,9.46
2022-12-20T14:28:13.622Z,9.44
2022-12-20T14:30:53.332Z,9.40
2022-12-20T14:33:35.164Z,9.36
2022-12-20T14:36:20.442Z,9.35
2022-12-20T14:39:02.787Z,9.35
2022-12-20T14:41:45.658Z,9.33
2022-12-20T14:44:27.679Z,9.30
2022-12-20T14:47:15.316Z,9.23
2022-12-20T14:49:56.769Z,9.22
2022-12-20T14:52:36.174Z,9.20
2022-12-20T14:55:17.381Z,9.14
2022-12-20T14:57:58.790Z,9.15
2022-12-20T15:00:40.042Z,9.14
2022-12-20T15:03:20.261Z,9.09
2022-12-20T15:06:01.626Z,9.06
2022-12-20T15:08:44.753Z,9.01
2022-12-20T15:11:25.585Z,9.01
2022-12-20T15:14:06.288Z,9.02
2022-12-20T15:16:48.694Z,9.00
2022-12-20T15:19:31.304Z,8.97
2022-12-20T15:22:13.207Z,8.95
2022-12-20T15:24:54.231Z,8.96
2022-12-20T15:27:33.609Z,8.95
2022-12-20T15:30:14.640Z,8.96
2022-12-20T15:32:56.146Z,8.97
2022-12-20T15:35:37.078Z,8.99
2022-12-20T15:38:29.714Z,9.02
2022-12-20T15:41:23.126Z,9.02
2022-12-20T15:44:04.961Z,9.02
2022-12-20T15:46:46.780Z,9.04
2022-12-20T15:49:29.027Z,9.01
2022-12-20T15:52:11.542Z,9.03
2022-12-20T15:54:52.123Z,9.00
2022-12-20T15:57:31.968Z,8.98
2022-12-20T16:00:13.329Z,8.99
2022-12-20T16:02:51.628Z,8.99
2022-12-20T16:05:33.917Z,9.06
2022-12-20T16:08:14.368Z,9.00
2022-12-20T16:10:54.511Z,9.06
2022-12-20T16:13:36.130Z,9.12
2022-12-20T16:16:18.148Z,9.16
2022-12-20T16:18:58.698Z,9.16
2022-12-20T16:21:42.227Z,9.13
2022-12-20T16:24:22.800Z,9.11
2022-12-20T16:27:02.665Z,9.06
2022-12-20T16:29:45.285Z,9.01
2022-12-20T16:32:25.425Z,8.98
2022-12-20T16:35:05.601Z,8.97
2022-12-20T16:37:48.616Z,8.95
2022-12-20T16:40:30.945Z,8.91
2022-12-20T16:43:11.295Z,8.88
2022-12-20T16:45:52.435Z,8.83
2022-12-20T16:48:32.365Z,8.80
2022-12-20T16:51:17.501Z,8.78
2022-12-20T16:57:01.538Z,8.68
2022-12-20T16:59:41.922Z,8.67
2022-12-20T17:02:25.337Z,8.64
2022-12-20T17:05:07.131Z,8.61
2022-12-20T17:07:47.696Z,8.58
2022-12-20T17:10:28.140Z,8.57
2022-12-20T17:13:09.759Z,8.57
2022-12-20T17:15:51.483Z,8.56
2022-12-20T17:18:32.898Z,8.54
2022-12-20T17:21:19.331Z,8.51
2022-12-20T17:24:00.651Z,8.53
2022-12-20T17:26:40.772Z,8.56
2022-12-20T17:29:20.574Z,8.56
2022-12-20T17:32:03.769Z,8.58
2022-12-20T17:34:44.083Z,8.57
2022-12-20T17:37:24.922Z,8.56
2022-12-20T17:40:05.629Z,8.53
2022-12-20T17:42:47.044Z,8.53
2022-12-20T17:45:29.228Z,8.53
2022-12-20T17:48:14.085Z,8.54
2022-12-20T17:50:54.209Z,8.54
2022-12-20T17:53:34.838Z,8.57
2022-12-20T17:56:15.685Z,8.57
2022-12-20T17:58:57.260Z,8.57
2022-12-20T18:01:38.778Z,8.55
2022-12-20T18:04:20.256Z,8.58
2022-12-20T18:07:02.118Z,8.60
2022-12-20T18:09:44.263Z,8.63
2022-12-20T18:12:24.772Z,8.63
2022-12-20T18:15:08.779Z,8.63
2022-12-20T18:17:50.146Z,8.61
2022-12-20T18:20:31.526Z,8.60
2022-12-20T18:23:11.914Z,8.61
2022-12-20T18:25:52.714Z,8.58
2022-12-20T18:28:33.196Z,8.58
2022-12-20T18:31:14.596Z,8.57
2022-12-20T18:33:58.252Z,8.55
2022-12-20T18:36:38.965Z,8.51
2022-12-20T18:39:21.751Z,8.49
2022-12-20T18:42:01.780Z,8.45
2022-12-20T18:44:42.532Z,8.44
2022-12-20T18:47:24.005Z,8.41
2022-12-20T18:50:07.834Z,8.33
2022-12-20T18:52:49.992Z,8.28
2022-12-20T18:55:32.170Z,8.23
2022-12-20T18:58:10.193Z,8.15
2022-12-20T19:00:54.885Z,8.10
2022-12-20T19:03:35.758Z,8.08
2022-12-20T19:06:16.327Z,8.06
2022-12-20T19:08:58.418Z,8.03
2022-12-20T19:11:39.896Z,7.99
2022-12-20T19:14:19.393Z,8.00
2022-12-20T19:17:00.237Z,7.97
2022-12-20T19:19:40.600Z,7.95
2022-12-20T19:22:22.269Z,7.94
2022-12-20T19:25:00.909Z,7.92
2022-12-20T19:27:40.913Z,7.91
2022-12-20T19:30:20.757Z,7.85
2022-12-20T19:33:01.552Z,7.83
2022-12-20T19:35:55.485Z,7.80
2022-12-20T19:38:37.204Z,7.83
2022-12-20T19:41:18.781Z,7.81
2022-12-20T19:43:59.003Z,7.78
2022-12-20T19:46:39.076Z,7.78
2022-12-20T19:49:21.213Z,7.79
2022-12-20T19:52:01.604Z,7.79
2022-12-20T19:54:43.005Z,7.77
2022-12-20T19:57:22.790Z,7.76
2022-12-20T20:00:03.758Z,7.77
2022-12-20T20:02:53.157Z,7.78
2022-12-20T20:05:37.422Z,7.76
2022-12-20T20:08:19.014Z,7.75
2022-12-20T20:11:09.100Z,7.75
2022-12-20T20:13:51.857Z,7.76
2022-12-20T20:16:32.844Z,7.75
2022-12-20T20:19:14.755Z,7.73
2022-12-20T20:21:55.644Z,7.73
2022-12-20T20:24:35.206Z,7.73
2022-12-20T20:27:16.904Z,7.73
2022-12-20T20:30:00.565Z,7.75
2022-12-20T20:32:41.883Z,7.73
2022-12-20T20:35:22.675Z,7.76
2022-12-20T20:38:03.103Z,7.74
2022-12-20T20:40:42.867Z,7.74
2022-12-20T20:43:22.704Z,7.74
2022-12-20T20:46:03.067Z,7.72
2022-12-20T20:48:44.059Z,7.68
2022-12-20T20:51:23.747Z,7.65
2022-12-20T20:54:05.231Z,7.63
2022-12-20T20:56:43.025Z,7.62
2022-12-20T20:59:22.646Z,7.62
2022-12-20T21:02:03.042Z,7.64
2022-12-20T21:04:49.497Z,7.67
2022-12-20T21:07:40.136Z,7.68
2022-12-20T21:10:20.221Z,7.67
2022-12-20T21:13:00.493Z,7.68
2022-12-20T21:15:43.494Z,7.70
2022-12-20T21:18:25.896Z,7.68
2022-12-20T21:21:10.393Z,7.68
2022-12-20T21:23:50.225Z,7.66
2022-12-20T21:26:31.101Z,7.64
2022-12-20T21:29:09.516Z,7.62
2022-12-20T21:31:50.753Z,7.64
2022-12-20T21:34:39.948Z,7.65
2022-12-20T21:37:20.961Z,7.64
2022-12-20T21:40:01.829Z,7.66
2022-12-20T21:42:46.648Z,7.69
2022-12-20T21:45:28.946Z,7.69
2022-12-20T21:48:09.301Z,7.69
2022-12-20T21:50:59.461Z,7.70
2022-12-20T21:53:43.152Z,7.68
2022-12-20T21:56:24.469Z,7.67
2022-12-20T21:59:05.545Z,7.70
2022-12-20T22:01:47.259Z,7.70
2022-12-20T22:04:28.326Z,7.72
2022-12-20T22:07:09.709Z,7.73
2022-12-20T22:09:51.131Z,7.71
2022-12-20T22:12:32.579Z,7.72
2022-12-20T22:15:13.084Z,7.73
2022-12-20T22:17:53.816Z,7.71
2022-12-20T22:20:34.913Z,7.67
2022-12-20T22:23:15.702Z,7.67
2022-12-20T22:25:55.706Z,7.67
2022-12-20T22:28:35.919Z,7.65
2022-12-20T22:31:18.134Z,7.67
2022-12-20T22:33:59.377Z,7.56
2022-12-20T22:36:39.605Z,7.65
2022-12-20T22:39:21.779Z,7.67
2022-12-20T22:42:00.358Z,7.71
2022-12-20T22:44:40.511Z,7.72
2022-12-20T22:47:19.519Z,7.75
2022-12-20T22:49:58.164Z,7.76
2022-12-20T22:52:39.250Z,7.75
2022-12-20T22:55:22.719Z,7.80
2022-12-20T22:58:02.679Z,7.81
2022-12-20T23:00:42.570Z,7.82
2022-12-20T23:03:22.384Z,7.83
2022-12-20T23:06:18.242Z,7.82
2022-12-20T23:09:00.464Z,7.81
2022-12-20T23:12:00.123Z,7.81
2022-12-20T23:15:03.568Z,7.81
2022-12-20T23:17:44.460Z,7.82
2022-12-20T23:20:41.643Z,7.80
2022-12-20T23:23:20.663Z,7.79
2022-12-20T23:26:09.099Z,7.77
2022-12-20T23:28:48.229Z,7.75
2022-12-20T23:31:29.992Z,7.73
2022-12-20T23:34:13.475Z,7.72
2022-12-20T23:36:52.458Z,7.71
2022-12-20T23:39:33.210Z,7.70
2022-12-20T23:42:12.929Z,7.68
2022-12-20T23:44:52.869Z,7.66
2022-12-20T23:47:30.693Z,7.64
2022-12-20T23:50:11.220Z,7.62
2022-12-20T23:52:52.169Z,7.60
2022-12-20T23:55:31.993Z,7.58
2022-12-20T23:58:13.814Z,7.55
